Adamsville, Pennsylvania
Current Conditions -  °F | °C
As of 2:53 AM on Wednesday 26 Nov 2014 (Local Time) from KGKJ Reporting Station
Overcast Overcast  
Wind Chill: 31°   Ceiling: 1800
Heat Index: 31°   Visibility: 10mi
Dew Point: 23°   Wind: 3mph
Humidity: 72%   Direction: 40°NE
Pressure: 30.15"   Gusts: NA
Location:  41.51°N, 80.37°W
Report Text: KGKJ 260753Z AUTO 04003KT 10SM OVC018 M01/M05 A3015 RMK AO2 SLP222 T10061050 TSNO
Loading
Personal Weather Stations






























Interactive Weather Map New forecast layout! Learn more

10-Day Weather Forecast

Advertisements
Track Severe Weather on mobile